• Join FlightAware (Why Join?)
  • Login
  • US Flag 
02:40PM EDT


 

Airport Tracker/Info


-or-


 

Live Flight TrackerFlight Track Log ✈ DAL6197 ✈ 13-Nov-2013 ✈ KGRR - KLGA

Flight Track Log - Related Links

Times and Time Zones

All times are in EST time to prevent confusion due to time zone crossing. See the DAL6197 flight status page for this flight to view local times or setup timezone preferences in your user account.

Time Position Orientation Groundspeed Altitude Reporting Facility
EST Latitude Longitude Course Direction KTS MPH feet Rate Location/Type
06:14AM 42.8389 -85.5025 119° Southeast 177 204 2,700  Level Chicago Center
06:15AM 42.7847 -85.4583 149° Southeast 230 265 5,300 3,120 Climbing Chicago Center
06:16AM 42.7497 -85.3606 116° Southeast 281 323 9,000 2,820 Climbing Chicago Center
06:17AM 42.7128 -85.2547 115° Southeast 304 350 11,100 2,040 Climbing Chicago Center
06:18AM 42.6675 -85.1328 117° Southeast 358 412 13,200 2,280 Climbing Chicago Center
06:19AM 42.6211 -85.0008 116° Southeast 382 440 15,700 2,220 Climbing Chicago Center
06:20AM 42.7657 -84.6315 119° Southeast  Level Estimated
06:20AM 42.5722 -84.8661 116° Southeast 396 456 17,700  Level Chicago Center
06:21AM 42.5231 -84.7286 116° Southeast 404 465 20,000 2,220 Climbing Chicago Center
06:22AM 42.4714 -84.5886 117° Southeast 414 476 22,200 2,160 Climbing Chicago Center
06:23AM 42.4194 -84.4500 117° Southeast 414 476 24,400 1,980 Climbing Chicago Center
06:24AM 42.3861 -84.3022 107° East 405 466 26,300 1,980 Climbing Chicago Center
06:26AM 42.3575 -84.1233 102° East 408 470 28,400 1,740 Climbing Chicago Center
06:27AM 42.3342 -83.9714 102° East 411 473 29,900 1,260 Climbing Chicago Center
06:28AM 42.3089 -83.8197 103° East 414 476 31,000 960 Climbing Chicago Center
06:29AM 42.2836 -83.6614 102° East 426 490 31,900 780 Climbing Chicago Center
06:30AM 42.2511 -83.4914 104° East 435 501 32,800 840 Climbing Cleveland Center
06:31AM 42.2244 -83.3275 102° East 442 509 33,800 960 Climbing Cleveland Center
06:32AM 42.1917 -83.1469 104° East 443 510 34,800 900 Climbing Cleveland Center
06:33AM 42.1642 -82.9822 103° East 449 517 35,700 840 Climbing Cleveland Center
06:34AM 42.1353 -82.8181 103° East 451 519 36,600 600 Climbing Cleveland Center
06:35AM 42.1050 -82.6528 104° East 455 524 37,000 180 Climbing Cleveland Center
06:36AM 42.0783 -82.4864 102° East 455 524 37,000  Level Cleveland Center
06:37AM 42.0478 -82.3250 104° East 449 517 37,000  Level Cleveland Center
06:38AM 42.0197 -82.1636 103° East 446 513 37,000  Level Cleveland Center
06:39AM 41.9853 -81.9786 104° East 443 510 37,000  Level Cleveland Center
06:40AM 41.9553 -81.8153 104° East 444 511 37,000  Level Cleveland Center
06:41AM 41.9250 -81.6503 104° East 448 516 37,000  Level Cleveland Center
06:42AM 41.8939 -81.4844 104° East 452 520 37,000  Level Cleveland Center
06:43AM 41.8639 -81.3189 104° East 451 519 37,000  Level Cleveland Center
06:44AM 41.8317 -81.1511 104° East 457 526 37,000  Level Cleveland Center
06:45AM 41.8006 -80.9875 104° East 450 518 37,000  Level Cleveland Center
06:46AM 41.7683 -80.8189 104° East 457 526 37,000  Level Cleveland Center
06:47AM 41.7358 -80.6511 104° East 460 529 37,000  Level Cleveland Center
06:48AM 41.7028 -80.4842 105° East 460 529 37,000  Level Cleveland Center
06:49AM 41.6697 -80.3147 105° East 463 533 37,000  Level Cleveland Center
06:50AM 41.6358 -80.1439 105° East 462 532 37,000  Level Cleveland Center
06:51AM 41.6028 -79.9806 105° East 461 531 37,000  Level Cleveland Center
06:52AM 41.5700 -79.8142 105° East 466 536 37,000  Level Cleveland Center
06:53AM 41.5347 -79.6467 106° East 468 539 37,000  Level Cleveland Center
06:54AM 41.5006 -79.4772 105° East 473 544 37,000  Level Cleveland Center
06:55AM 41.4581 -79.2742 106° East 475 547 37,000  Level Cleveland Center
06:56AM 41.4225 -79.1061 106° East 473 544 37,000  Level Cleveland Center
06:57AM 41.3867 -78.9350 106° East 478 550 37,000  Level Cleveland Center
06:58AM 41.3494 -78.7583 106° East 478 550 37,000 -600 Level Cleveland Center
06:59AM 41.3119 -78.5889 106° East 478 550 35,800 -1,260 Descending Cleveland Center
07:00AM 41.2753 -78.4189 106° East 478 550 34,500 -1,320 Descending Cleveland Center
07:01AM 41.2383 -78.2494 106° East 477 549 33,200 -840 Descending Cleveland Center
07:02AM 41.2086 -78.0828 103° East 480 552 33,000 -120 Descending New York Center
07:03AM 41.1864 -77.9342 101° East 467 537 33,000  Level New York Center
07:04AM 41.1678 -77.7611 98° East 462 532 33,000  Level New York Center
07:05AM 41.1442 -77.5906 100° East 462 532 33,000 -300 Level New York Center
07:06AM 41.1228 -77.4175 99° East 473 544 32,500 -900 Descending New York Center
07:07AM 41.0978 -77.2306 100° East 473 544 31,200 -1,260 Descending New York Center
07:08AM 41.0736 -77.0603 101° East 473 544 30,000 -1,680 Descending New York Center
07:09AM 41.0511 -76.8903 100° East 473 544 27,900 -2,460 Descending New York Center
07:10AM 41.0281 -76.7314 101° East 460 529 25,100 -2,820 Descending New York Center
07:11AM 41.0039 -76.5892 103° East 446 513 22,300 -2,820 Descending New York Center
07:12AM 40.9672 -76.4403 108° East 434 499 19,500 -2,160 Descending New York Center
07:13AM 40.9308 -76.2833 107° East 412 474 18,000 -780 Descending New York Center
07:14AM 40.8981 -76.1381 107° East 407 468 18,000 -60 Level New York Center
07:15AM 40.8661 -76.0119 108° East 407 468 17,900 -1,140 Descending New York Center
07:16AM 40.8272 -75.8556 108° East 407 468 15,800 -2,040 Descending New York Center
07:17AM 40.7989 -75.7356 107° East 391 450 13,900 -1,620 Descending New York Center
07:18AM 40.7583 -75.6064 112° Southeast 383 441 12,600 -1,260 Descending New York Center
07:19AM 40.7142 -75.4608 112° Southeast 383 441 11,400 -1,200 Descending New York Center
07:20AM 40.6714 -75.3322 114° Southeast 383 441 10,300 -720 Descending New York Center
07:21AM 40.6361 -75.2178 112° Southeast 383 441 10,000 -180 Descending New York Center
07:22AM 40.5911 -75.0836 114° Southeast 370 426 10,000  Level New York Center
07:23AM 40.5539 -74.9611 112° Southeast 364 419 10,000  Level New York Center
07:24AM 40.5203 -74.8469 111° Southeast 359 413 10,000  Level New York Center
07:25AM 40.4772 -74.7108 113° Southeast 364 419 10,000  Level New York Center
07:26AM 40.4394 -74.5858 112° Southeast 364 419 10,000  Level New York Center
07:27AM 40.4519 -74.4583 83° East 344 396 10,000  Level New York Center
07:28AM 40.4803 -74.3508 71° East 334 384 10,000 -540 Level New York Center
07:29AM 40.5106 -74.2433 70° East 296 341 9,000 -1,200 Descending New York Center
07:30AM 40.5319 -74.1569 72° East 275 316 7,600 -1,200 Descending New York Center
07:31AM 40.5614 -74.0683 66° East 244 281 6,700 -1,200 Descending New York Center
07:32AM 40.6000 -74.0264 40° Northeast 206 237 5,200 -1,380 Descending New York Center
07:33AM 40.6511 -73.9850 32° Northeast 194 223 4,000 -960 Descending New York Center
07:34AM 40.6875 -73.9511 35° Northeast 188 216 3,300 -1,020 Descending New York Center
07:35AM 40.7222 -73.8981 49° Northeast 172 198 2,000 -1,140 Descending New York Center
07:36AM 40.7333 -73.8500 73° East 143 165 1,100 -900 Descending New York TRACON
07:37AM 40.7667 -73.8500 360° North 121 139 300 -840 Descending New York TRACON
07:39AM 40.7667 -73.8667 30° Northeast  Level FlightAware Approximate
07:46AM 40.7772 -73.8726 30° Northeast  Level Estimated
07:47AM 40.7772 -73.8726 30° Northeast  Level Estimated